Time;durP1;ratioP1;P1;durP2;ratioP2;P2;SDS_P1;SDS_P2;PMS_P1;PMS_P2;Temp;Humidity;BMP_temperature;BMP_pressure;BME280_temperature;BME280_humidity;BME280_pressure;Samples;Min_cycle;Max_cycle;Signal;HPM_P1;HPM_P2
2023/05/14 00:03:27;;;;;;;39.40;23.13;;;;;;;11.13;100.00;102081.78;10478352;28;20029;-76
2023/05/14 00:08:28;;;;;;;28.02;21.25;;;;;;;11.13;100.00;102076.34;10459640;28;20060;-77
2023/05/14 00:13:28;;;;;;;34.72;22.33;;;;;;;11.08;100.00;102070.63;10461596;28;20032;-75
2023/05/14 00:18:28;;;;;;;31.52;21.90;;;;;;;11.00;100.00;102071.47;10462726;28;20388;-75
2023/05/14 00:23:29;;;;;;;29.63;20.65;;;;;;;10.99;100.00;102058.09;10461918;28;20190;-76
2023/05/14 00:28:29;;;;;;;32.85;22.83;;;;;;;10.93;100.00;102055.03;10457979;28;20036;-76
2023/05/14 00:33:30;;;;;;;28.48;19.77;;;;;;;10.86;100.00;102056.75;10458151;28;20515;-75
2023/05/14 00:38:30;;;;;;;38.22;23.13;;;;;;;10.83;100.00;102064.38;10458106;28;20064;-76
2023/05/14 00:43:32;;;;;;;35.63;21.95;;;;;;;10.80;100.00;102065.56;10459365;28;20138;-75
2023/05/14 00:48:32;;;;;;;36.92;20.60;;;;;;;10.77;100.00;102057.78;10460005;28;20044;-75
2023/05/14 00:53:33;;;;;;;33.40;22.50;;;;;;;10.74;100.00;102057.28;10457284;28;20040;-75
2023/05/14 00:58:33;;;;;;;27.45;20.60;;;;;;;10.70;100.00;102048.63;10455053;28;20666;-75
2023/05/14 01:03:34;;;;;;;29.63;20.83;;;;;;;10.69;100.00;102052.38;10455799;28;20136;-76
2023/05/14 01:08:51;;;;;;;37.83;20.50;;;;;;;10.67;100.00;102046.28;10474443;28;20091;-75
2023/05/14 01:14:23;;;;;;;28.40;21.35;;;;;;;10.66;100.00;102044.59;10460622;28;20078;-76
2023/05/14 01:19:37;;;;;;;31.98;20.17;;;;;;;10.63;100.00;102045.75;10442015;28;20122;-76
2023/05/14 01:24:38;;;;;;;37.15;21.08;;;;;;;10.59;100.00;102035.41;10441655;28;20115;-75
2023/05/14 01:29:41;;;;;;;32.80;21.63;;;;;;;10.61;100.00;102039.66;10476325;28;20049;-75
2023/05/14 01:34:41;;;;;;;28.75;18.27;;;;;;;10.58;100.00;102034.59;10465923;28;20128;-75
2023/05/14 01:39:41;;;;;;;27.75;21.55;;;;;;;10.59;100.00;102030.00;10464426;28;20024;-74
2023/05/14 01:44:42;;;;;;;31.33;20.75;;;;;;;10.55;100.00;102032.22;10454542;28;20051;-76
2023/05/14 01:49:42;;;;;;;22.80;17.08;;;;;;;10.56;100.00;102027.63;10452704;28;20037;-77
2023/05/14 01:54:42;;;;;;;31.67;23.80;;;;;;;10.54;100.00;102026.97;10456630;28;20396;-76
2023/05/14 01:59:43;;;;;;;26.95;18.98;;;;;;;10.44;100.00;102014.44;10453871;28;20044;-74
2023/05/14 02:04:43;;;;;;;31.42;18.42;;;;;;;10.36;100.00;102009.03;10454528;28;20124;-75
2023/05/14 02:09:44;;;;;;;38.53;19.33;;;;;;;10.34;100.00;102019.19;10454503;28;20095;-74
2023/05/14 02:14:44;;;;;;;28.25;20.92;;;;;;;10.34;100.00;102021.91;10457159;28;20071;-75
2023/05/14 02:19:45;;;;;;;31.40;21.52;;;;;;;10.35;100.00;102018.16;10456264;28;20461;-75
2023/05/14 02:24:45;;;;;;;32.28;22.42;;;;;;;10.34;100.00;102012.91;10460470;28;20388;-75
2023/05/14 02:29:46;;;;;;;34.92;20.35;;;;;;;10.29;100.00;102007.16;10453576;28;20140;-76
2023/05/14 02:34:46;;;;;;;35.22;20.83;;;;;;;10.28;100.00;102003.63;10453097;28;20127;-77
2023/05/14 02:39:47;;;;;;;25.45;20.30;;;;;;;10.30;100.00;102000.72;10451087;28;20115;-77
2023/05/14 02:44:48;;;;;;;28.23;20.35;;;;;;;10.29;100.00;101999.88;10452369;28;20040;-76
2023/05/14 02:49:48;;;;;;;36.50;20.20;;;;;;;10.32;100.00;101996.84;10452410;28;20037;-75
2023/05/14 02:54:49;;;;;;;30.08;17.10;;;;;;;10.29;100.00;101990.94;10452876;28;20356;-75
2023/05/14 02:59:49;;;;;;;33.00;19.38;;;;;;;10.30;100.00;101990.75;10451468;28;20037;-78
2023/05/14 03:04:50;;;;;;;39.38;20.58;;;;;;;10.28;100.00;101981.13;10452683;28;20496;-76
2023/05/14 03:09:50;;;;;;;36.28;20.25;;;;;;;10.30;100.00;101992.59;10453686;28;20084;-74
2023/05/14 03:14:51;;;;;;;28.40;20.15;;;;;;;10.33;100.00;101987.69;10452226;28;20076;-74
2023/05/14 03:19:51;;;;;;;24.65;18.00;;;;;;;10.32;100.00;101985.19;10460970;28;20056;-76
2023/05/14 03:24:52;;;;;;;26.45;16.88;;;;;;;10.26;100.00;101981.28;10459209;28;20036;-76
2023/05/14 03:29:52;;;;;;;31.83;19.48;;;;;;;10.29;100.00;101980.94;10459189;28;20502;-74
2023/05/14 03:34:53;;;;;;;23.45;17.70;;;;;;;10.28;100.00;101973.84;10459963;28;20041;-74
2023/05/14 03:39:53;;;;;;;27.45;19.35;;;;;;;10.28;100.00;101973.00;10474536;28;20064;-75
2023/05/14 03:44:53;;;;;;;29.92;17.58;;;;;;;10.30;100.00;101971.78;10469399;28;20059;-76
2023/05/14 03:49:54;;;;;;;24.35;19.00;;;;;;;10.30;100.00;101966.38;10477920;28;20033;-76
2023/05/14 03:54:54;;;;;;;35.13;17.45;;;;;;;10.29;100.00;101975.53;10475986;28;20037;-74
2023/05/14 03:59:55;;;;;;;34.03;17.90;;;;;;;10.25;100.00;101982.28;10466297;28;20499;-77
2023/05/14 04:04:55;;;;;;;25.15;20.17;;;;;;;10.20;100.00;101981.91;10467002;28;20033;-76
2023/05/14 04:09:55;;;;;;;33.05;18.88;;;;;;;10.19;100.00;101985.66;10462597;28;20068;-76
2023/05/14 04:14:57;;;;;;;25.55;20.02;;;;;;;10.17;100.00;101982.25;10458957;28;20052;-75
2023/05/14 04:19:57;;;;;;;30.75;19.33;;;;;;;10.22;100.00;101979.91;10466558;28;20101;-76
2023/05/14 04:24:57;;;;;;;28.35;19.08;;;;;;;10.29;100.00;101975.53;10464150;28;20036;-75
2023/05/14 04:29:58;;;;;;;38.50;20.60;;;;;;;10.36;100.00;101987.38;10462023;28;20580;-76
2023/05/14 04:34:58;;;;;;;34.85;22.00;;;;;;;10.42;100.00;101978.56;10459275;28;20042;-76
2023/05/14 04:39:59;;;;;;;37.92;23.17;;;;;;;10.56;100.00;101982.47;10457797;28;20040;-75
2023/05/14 04:44:59;;;;;;;30.65;22.65;;;;;;;10.66;100.00;101976.88;10456705;28;20032;-76
2023/05/14 04:50:00;;;;;;;31.95;22.33;;;;;;;10.77;100.00;101981.91;10454692;28;20508;-77
2023/05/14 04:55:00;;;;;;;36.00;23.50;;;;;;;10.92;100.00;101972.06;10454957;28;20037;-78
2023/05/14 05:00:01;;;;;;;33.55;23.48;;;;;;;11.09;100.00;101972.84;10455375;28;20051;-75
2023/05/14 05:05:02;;;;;;;34.28;22.40;;;;;;;11.20;100.00;101974.34;10456021;28;20033;-74
2023/05/14 05:10:03;;;;;;;38.60;23.50;;;;;;;11.19;100.00;101997.03;10453864;28;20032;-75
2023/05/14 05:15:04;;;;;;;35.25;25.35;;;;;;;11.25;100.00;101992.78;10453802;28;20035;-74
2023/05/14 05:20:08;;;;;;;40.45;24.92;;;;;;;11.39;100.00;102000.19;10453647;28;20033;-77
2023/05/14 05:25:10;;;;;;;38.60;26.65;;;;;;;11.50;100.00;102005.22;10453663;28;20071;-75
2023/05/14 05:30:11;;;;;;;44.20;31.45;;;;;;;11.55;100.00;102005.56;10457246;28;20139;-77
2023/05/14 05:35:11;;;;;;;41.72;27.65;;;;;;;11.60;100.00;102007.72;10461089;28;20041;-76
2023/05/14 05:40:13;;;;;;;42.65;29.00;;;;;;;11.53;100.00;102009.47;10454777;28;20045;-78
2023/05/14 05:45:13;;;;;;;44.20;30.50;;;;;;;11.53;100.00;102014.88;10454390;28;20071;-76
2023/05/14 05:50:14;;;;;;;43.60;32.30;;;;;;;11.54;100.00;102013.84;10454667;28;20534;-75
2023/05/14 05:55:14;;;;;;;42.95;31.90;;;;;;;11.56;100.00;102015.38;10453347;28;20052;-76
2023/05/14 06:00:15;;;;;;;46.13;31.45;;;;;;;11.53;100.00;102010.28;10453411;28;20037;-76
2023/05/14 06:05:16;;;;;;;39.92;26.95;;;;;;;11.61;100.00;102020.25;10456151;28;20033;-75
2023/05/14 06:10:16;;;;;;;34.63;26.77;;;;;;;11.61;100.00;102012.13;10461428;28;20033;-76
2023/05/14 06:15:17;;;;;;;31.55;22.27;;;;;;;11.72;100.00;102017.16;10460125;28;20384;-76
2023/05/14 06:20:18;;;;;;;25.63;21.38;;;;;;;11.98;100.00;102014.16;10436602;28;20392;-75
2023/05/14 06:25:19;;;;;;;25.35;18.98;;;;;;;12.19;100.00;102013.50;10452354;28;20040;-75
2023/05/14 06:30:19;;;;;;;25.75;17.48;;;;;;;12.27;100.00;102027.00;10451824;28;20060;-76
2023/05/14 06:35:20;;;;;;;24.05;16.27;;;;;;;12.30;100.00;102020.38;10453502;28;20049;-77
2023/05/14 06:40:20;;;;;;;23.13;17.08;;;;;;;12.37;100.00;102017.78;10452959;28;20044;-78
2023/05/14 06:45:21;;;;;;;22.83;15.20;;;;;;;12.56;100.00;102020.00;10453257;28;20049;-76
2023/05/14 06:50:21;;;;;;;27.77;17.63;;;;;;;12.96;100.00;102024.22;10434906;28;20140;-74
2023/05/14 06:55:22;;;;;;;24.73;13.65;;;;;;;13.28;100.00;102024.06;10462959;28;20041;-76
2023/05/14 07:00:22;;;;;;;27.67;16.60;;;;;;;13.49;100.00;102010.53;10464524;28;20060;-75
2023/05/14 07:05:23;;;;;;;20.20;12.55;;;;;;;13.55;100.00;102001.59;10462989;28;20064;-76
2023/05/14 07:10:24;;;;;;;17.30;11.93;;;;;;;13.91;100.00;102007.06;10464293;28;20479;-75
2023/05/14 07:15:24;;;;;;;22.02;10.90;;;;;;;14.10;100.00;102000.16;10460922;28;20059;-74
2023/05/14 07:20:25;;;;;;;16.58;11.10;;;;;;;14.77;100.00;101996.16;10307354;28;20482;-76
2023/05/14 07:25:25;;;;;;;15.57;11.13;;;;;;;15.99;100.00;101987.31;10335805;28;20074;-77
2023/05/14 07:30:25;;;;;;;23.15;10.13;;;;;;;16.09;100.00;101986.06;10335380;28;20086;-78
2023/05/14 07:35:26;;;;;;;13.13;8.70;;;;;;;16.21;100.00;101989.88;10337032;28;20074;-76
2023/05/14 07:40:26;;;;;;;15.52;9.05;;;;;;;16.01;100.00;101993.41;10336884;28;20121;-76
2023/05/14 07:45:27;;;;;;;17.02;9.23;;;;;;;16.36;100.00;101990.50;10334971;28;20500;-78
2023/05/14 07:50:27;;;;;;;10.13;7.88;;;;;;;16.35;100.00;101988.00;10334368;28;20037;-78
2023/05/14 07:55:27;;;;;;;18.58;8.82;;;;;;;16.47;100.00;101991.78;10352489;28;20446;-77
2023/05/14 08:00:28;;;;;;;14.50;6.78;;;;;;;17.84;100.00;101985.38;10336563;28;20062;-77
2023/05/14 08:05:28;;;;;;;9.38;7.07;;;;;;;19.12;100.00;101975.91;10334045;28;20611;-77
2023/05/14 08:10:29;;;;;;;13.00;7.88;;;;;;;19.81;100.00;101981.19;10334112;28;20062;-77
2023/05/14 08:15:29;;;;;;;12.45;6.63;;;;;;;20.35;100.00;101982.06;10335510;28;20046;-76
2023/05/14 08:20:30;;;;;;;6.78;6.07;;;;;;;20.99;100.00;101972.06;10334643;28;20041;-77
2023/05/14 08:25:30;;;;;;;17.77;6.53;;;;;;;21.45;100.00;101975.84;10336699;28;20038;-76
2023/05/14 08:30:31;;;;;;;7.65;4.90;;;;;;;21.65;100.00;101969.06;10335914;28;20543;-76
2023/05/14 08:35:31;;;;;;;9.23;5.05;;;;;;;21.58;100.00;101964.53;10339023;28;20050;-76
2023/05/14 08:40:31;;;;;;;13.05;5.82;;;;;;;21.08;100.00;101953.25;10307270;28;20108;-76
2023/05/14 08:45:33;;;;;;;10.32;5.15;;;;;;;21.28;100.00;101961.97;10378134;28;20473;-78
2023/05/14 08:50:34;;;;;;;15.88;5.82;;;;;;;21.38;100.00;101955.88;10373782;28;20034;-77
2023/05/14 08:55:35;;;;;;;10.75;5.20;;;;;;;22.16;100.00;101948.81;10340152;28;20423;-77
2023/05/14 09:00:35;;;;;;;10.80;4.53;;;;;;;22.64;100.00;101952.06;10356460;28;20033;-76
2023/05/14 09:05:36;;;;;;;11.45;5.72;;;;;;;22.68;100.00;101943.00;10371653;28;20136;-78
2023/05/14 09:10:36;;;;;;;9.77;5.53;;;;;;;23.28;100.00;101943.31;10372398;28;20053;-78
2023/05/14 09:15:36;;;;;;;7.47;4.50;;;;;;;23.97;100.00;101937.19;10370473;28;20030;-78
2023/05/14 09:20:37;;;;;;;4.90;4.55;;;;;;;24.04;100.00;101944.19;10353834;28;20569;-76
2023/05/14 09:25:38;;;;;;;5.28;3.80;;;;;;;23.60;100.00;101943.41;10372513;28;20033;-78
2023/05/14 09:30:38;;;;;;;6.65;3.50;;;;;;;23.31;100.00;101940.03;10372240;28;20085;-76
2023/05/14 09:35:40;;;;;;;4.55;4.22;;;;;;;23.87;100.00;101937.94;10371531;28;20077;-77
2023/05/14 09:40:40;;;;;;;7.85;3.80;;;;;;;23.67;100.00;101935.75;10371413;28;20034;-76
2023/05/14 09:45:41;;;;;;;6.05;4.97;;;;;;;23.90;100.00;101926.34;10372685;28;20037;-76
2023/05/14 09:50:42;;;;;;;22.45;4.20;;;;;;;23.79;100.00;101922.63;10377866;28;20038;-77
2023/05/14 09:55:43;;;;;;;4.28;3.88;;;;;;;24.05;100.00;101917.34;10358293;28;20080;-76
2023/05/14 10:00:44;;;;;;;4.55;4.13;;;;;;;24.30;100.00;101923.06;10369732;28;20554;-78
2023/05/14 10:05:45;;;;;;;9.07;5.82;;;;;;;24.73;100.00;101928.66;10369156;28;20394;-76
2023/05/14 10:10:45;;;;;;;6.70;4.38;;;;;;;24.68;100.00;101921.16;10352994;28;20076;-77
2023/05/14 10:15:58;;;;;;;6.50;4.93;;;;;;;24.83;100.00;101917.66;10374145;28;20034;-78
2023/05/14 10:21:05;;;;;;;7.85;5.35;;;;;;;24.90;100.00;101911.88;10368454;28;20041;-76
2023/05/14 10:26:06;;;;;;;12.10;4.53;;;;;;;24.83;100.00;101918.50;10368711;28;20030;-77
2023/05/14 10:31:10;;;;;;;11.63;5.22;;;;;;;25.00;100.00;101903.59;10355456;28;20049;-76
2023/05/14 10:36:10;;;;;;;7.63;6.00;;;;;;;25.58;100.00;101896.06;10352320;28;20062;-75
2023/05/14 10:41:13;;;;;;;8.75;5.22;;;;;;;25.72;100.00;101897.22;10369414;28;20488;-74
2023/05/14 10:46:14;;;;;;;5.45;4.95;;;;;;;25.50;100.00;101899.38;10368316;28;20043;-75
2023/05/14 10:51:16;;;;;;;7.93;4.22;;;;;;;25.44;100.00;101900.47;10368549;28;20357;-74
2023/05/14 10:56:16;;;;;;;6.70;5.10;;;;;;;25.61;100.00;101883.59;10367971;28;20408;-76
2023/05/14 11:01:17;;;;;;;7.00;4.75;;;;;;;25.64;100.00;101883.88;10367157;28;20045;-74
2023/05/14 11:06:17;;;;;;;9.88;5.32;;;;;;;25.37;100.00;101878.56;10368256;28;20038;-75
2023/05/14 11:11:18;;;;;;;4.65;4.03;;;;;;;25.59;100.00;101870.00;10373613;28;20133;-69
2023/05/14 11:16:21;;;;;;;11.10;5.32;;;;;;;25.68;100.00;101865.56;10369003;28;20072;-69
2023/05/14 11:21:21;;;;;;;7.20;4.57;;;;;;;26.29;95.74;101852.81;10365995;28;20030;-69
2023/05/14 11:26:22;;;;;;;5.03;4.63;;;;;;;26.81;96.15;101849.63;10367498;28;20413;-68
2023/05/14 11:31:23;;;;;;;9.38;5.00;;;;;;;26.64;94.12;101841.66;10366803;28;20468;-72
2023/05/14 11:36:23;;;;;;;6.38;5.28;;;;;;;26.53;93.73;101839.19;10366583;28;20418;-68
2023/05/14 11:41:26;;;;;;;6.65;4.07;;;;;;;26.59;92.57;101838.06;10349185;28;20038;-73
2023/05/14 11:46:28;;;;;;;5.00;4.05;;;;;;;26.70;91.69;101828.56;10373052;28;20030;-73
2023/05/14 11:51:29;;;;;;;11.40;5.18;;;;;;;26.97;90.78;101828.16;10374990;28;20423;-73
2023/05/14 11:56:29;;;;;;;8.27;5.50;;;;;;;27.17;95.75;101824.47;10374423;28;20144;-75
2023/05/14 12:01:35;;;;;;;5.57;4.53;;;;;;;26.91;92.10;101823.75;10356390;28;20127;-75
2023/05/14 12:06:37;;;;;;;7.60;5.13;;;;;;;26.93;95.16;101815.97;10356711;28;20100;-76
2023/05/14 12:11:37;;;;;;;8.07;4.78;;;;;;;26.57;95.12;101815.28;10320917;28;20164;-74
2023/05/14 12:16:39;;;;;;;9.05;4.40;;;;;;;26.23;95.43;101817.81;10332757;28;20062;-66
2023/05/14 12:21:39;;;;;;;5.30;4.60;;;;;;;25.57;98.70;101813.97;10331606;28;20112;-65
2023/05/14 12:26:44;;;;;;;6.97;6.38;;;;;;;25.15;98.39;101814.19;10352168;28;20478;-65
2023/05/14 12:31:48;;;;;;;5.63;4.47;;;;;;;24.98;99.50;101809.69;10335024;28;20062;-75
2023/05/14 12:36:48;;;;;;;5.47;4.97;;;;;;;25.15;100.00;101808.63;10332085;28;20382;-76
2023/05/14 12:41:49;;;;;;;8.25;4.32;;;;;;;25.09;100.00;101804.97;10359796;28;20026;-75
2023/05/14 12:46:49;;;;;;;7.50;5.85;;;;;;;24.76;100.00;101800.69;10372140;28;20033;-74
2023/05/14 12:51:50;;;;;;;13.07;5.40;;;;;;;24.33;100.00;101797.97;10372473;28;20084;-76
2023/05/14 12:56:50;;;;;;;5.85;5.30;;;;;;;23.71;100.00;101798.66;10372041;28;20038;-76
2023/05/14 13:01:50;;;;;;;5.95;5.35;;;;;;;23.33;100.00;101794.97;10387620;28;20141;-75
2023/05/14 13:06:51;;;;;;;6.80;5.07;;;;;;;23.53;100.00;101799.84;10372537;28;20456;-76
2023/05/14 13:11:51;;;;;;;19.83;7.38;;;;;;;23.57;100.00;101792.69;10354447;28;20050;-75
2023/05/14 13:16:52;;;;;;;9.32;4.75;;;;;;;23.36;100.00;101791.69;10373391;28;20541;-77
2023/05/14 13:21:52;;;;;;;9.05;5.72;;;;;;;23.40;100.00;101790.06;10387456;28;20048;-75
2023/05/14 13:26:52;;;;;;;6.18;5.35;;;;;;;23.28;100.00;101794.06;10375932;28;20038;-76
2023/05/14 13:31:53;;;;;;;12.02;5.43;;;;;;;23.41;100.00;101793.66;10331955;28;20065;-76
2023/05/14 13:36:53;;;;;;;8.10;5.72;;;;;;;22.75;100.00;101804.78;10332148;28;20037;-74
2023/05/14 13:41:55;;;;;;;12.05;5.55;;;;;;;22.15;100.00;101805.59;10333874;28;20030;-77
2023/05/14 13:46:56;;;;;;;8.10;5.53;;;;;;;22.06;100.00;101802.41;10334332;28;20042;-73
2023/05/14 13:51:56;;;;;;;7.43;4.82;;;;;;;21.76;100.00;101805.50;10352844;28;20062;-74
2023/05/14 13:56:56;;;;;;;7.45;5.75;;;;;;;21.39;100.00;101807.91;10333801;28;20034;-76
2023/05/14 14:01:57;;;;;;;6.35;4.50;;;;;;;21.22;100.00;101803.19;10344704;28;20038;-72
2023/05/14 14:06:57;;;;;;;8.15;4.93;;;;;;;21.29;100.00;101797.50;10331209;28;20058;-75
2023/05/14 14:11:57;;;;;;;8.43;6.28;;;;;;;20.79;100.00;101799.00;10345544;28;20085;-74
2023/05/14 14:16:58;;;;;;;10.30;4.65;;;;;;;20.46;100.00;101801.59;10328951;28;20064;-73
2023/05/14 14:21:58;;;;;;;9.05;6.00;;;;;;;20.31;100.00;101808.41;10327267;28;20030;-73
2023/05/14 14:27:01;;;;;;;4.65;3.85;;;;;;;20.13;100.00;101787.38;10329333;28;20158;-75
2023/05/14 14:32:02;;;;;;;6.43;4.45;;;;;;;20.02;100.00;101793.72;10328869;28;20161;-72
2023/05/14 14:37:02;;;;;;;7.25;3.85;;;;;;;19.68;100.00;101790.69;10328681;28;20045;-75
2023/05/14 14:42:03;;;;;;;6.82;5.60;;;;;;;19.57;100.00;101791.47;10344545;28;20053;-75
2023/05/14 14:47:03;;;;;;;8.27;5.43;;;;;;;19.33;100.00;101785.06;10328589;28;20215;-74
2023/05/14 14:52:04;;;;;;;9.13;4.88;;;;;;;19.32;100.00;101791.66;10294176;28;20136;-76
2023/05/14 14:57:04;;;;;;;9.57;5.20;;;;;;;19.18;100.00;101790.19;10373516;28;20097;-74
2023/05/14 15:02:05;;;;;;;9.18;5.85;;;;;;;18.79;100.00;101782.25;10371398;28;20030;-74
2023/05/14 15:07:05;;;;;;;13.95;6.15;;;;;;;18.72;100.00;101772.38;10368155;28;20029;-73
2023/05/14 15:12:07;;;;;;;5.35;4.82;;;;;;;18.86;100.00;101773.06;10369458;28;20038;-76
2023/05/14 15:17:08;;;;;;;6.05;5.45;;;;;;;18.77;100.00;101762.44;10377368;28;20033;-73
2023/05/14 15:22:08;;;;;;;14.75;5.95;;;;;;;18.85;100.00;101766.75;10375238;28;20033;-75
2023/05/14 15:27:09;;;;;;;6.38;5.70;;;;;;;18.68;100.00;101768.44;10376943;28;20511;-75
2023/05/14 15:32:09;;;;;;;8.27;5.38;;;;;;;18.30;100.00;101762.09;10375910;28;20058;-74
2023/05/14 15:37:10;;;;;;;7.05;4.93;;;;;;;18.03;100.00;101767.06;10358634;28;20049;-75
2023/05/14 15:42:10;;;;;;;9.88;6.28;;;;;;;17.95;100.00;101761.00;10374201;28;20038;-75
2023/05/14 15:47:10;;;;;;;11.77;5.85;;;;;;;17.62;100.00;101759.38;10375750;28;20393;-75
2023/05/14 15:52:11;;;;;;;8.60;5.20;;;;;;;17.27;100.00;101753.53;10373636;28;20049;-75
2023/05/14 15:57:11;;;;;;;11.30;6.10;;;;;;;16.90;100.00;101754.16;10375525;28;20048;-74
2023/05/14 16:02:13;;;;;;;7.35;5.82;;;;;;;16.89;100.00;101746.19;10373958;28;20486;-75
2023/05/14 16:07:13;;;;;;;10.68;5.55;;;;;;;17.04;100.00;101751.34;10374965;28;20065;-77
2023/05/14 16:12:13;;;;;;;9.13;5.50;;;;;;;17.11;100.00;101753.00;10379378;28;20061;-73
2023/05/14 16:17:14;;;;;;;11.10;5.90;;;;;;;17.06;100.00;101751.97;10380780;28;20038;-74
2023/05/14 16:22:14;;;;;;;5.93;5.38;;;;;;;16.30;100.00;101758.16;10375648;28;20037;-75
2023/05/14 16:27:17;;;;;;;5.90;5.13;;;;;;;15.98;100.00;101753.41;10373312;28;20092;-76
2023/05/14 16:32:18;;;;;;;10.90;5.30;;;;;;;15.86;100.00;101755.13;10374691;28;20116;-74
2023/05/14 16:37:21;;;;;;;7.05;4.65;;;;;;;15.53;100.00;101750.47;10374712;28;20084;-75
2023/05/14 16:42:21;;;;;;;5.05;4.10;;;;;;;15.25;100.00;101733.44;10356643;28;20040;-77
2023/05/14 16:47:22;;;;;;;7.25;5.70;;;;;;;15.18;100.00;101748.97;10355992;28;20486;-76
2023/05/14 16:52:22;;;;;;;4.85;4.38;;;;;;;14.91;100.00;101748.91;10371366;28;20042;-75
2023/05/14 16:57:22;;;;;;;8.18;4.18;;;;;;;14.73;100.00;101749.47;10373538;28;20118;-75
2023/05/14 17:02:23;;;;;;;13.88;5.57;;;;;;;14.63;100.00;101758.03;10371361;28;20124;-76
2023/05/14 17:07:23;;;;;;;13.25;5.13;;;;;;;14.58;100.00;101748.78;10372649;28;20081;-75
2023/05/14 17:12:24;;;;;;;7.38;5.28;;;;;;;14.58;100.00;101749.63;10338654;28;20025;-76
2023/05/14 17:17:25;;;;;;;8.60;5.35;;;;;;;14.43;100.00;101741.56;10354839;28;20034;-75
2023/05/14 17:22:25;;;;;;;6.30;4.57;;;;;;;14.20;100.00;101746.47;10371655;28;20042;-76
2023/05/14 17:27:28;;;;;;;8.70;4.53;;;;;;;14.18;100.00;101743.94;10370926;28;20520;-74
2023/05/14 17:32:28;;;;;;;7.55;5.30;;;;;;;14.15;100.00;101749.78;10370648;28;20073;-74
2023/05/14 17:37:29;;;;;;;6.45;4.95;;;;;;;13.96;100.00;101734.16;10372063;28;20069;-74
2023/05/14 17:42:29;;;;;;;14.80;4.85;;;;;;;13.72;100.00;101728.16;10354519;28;20029;-76
2023/05/14 17:47:30;;;;;;;10.85;6.15;;;;;;;13.53;100.00;101727.97;10372016;28;20156;-76
2023/05/14 17:52:30;;;;;;;11.30;6.18;;;;;;;13.37;100.00;101723.66;10371134;28;20080;-75
2023/05/14 17:57:31;;;;;;;16.02;5.50;;;;;;;13.24;100.00;101736.13;10370380;28;20038;-75
2023/05/14 18:02:31;;;;;;;13.25;5.32;;;;;;;13.10;100.00;101727.97;10370095;28;20118;-75
2023/05/14 18:07:32;;;;;;;5.63;5.13;;;;;;;12.98;100.00;101735.81;10376477;28;20550;-74
2023/05/14 18:12:32;;;;;;;7.78;4.30;;;;;;;12.78;100.00;101741.88;10369798;28;20072;-76
2023/05/14 18:17:32;;;;;;;9.32;6.18;;;;;;;12.68;100.00;101746.75;10369917;28;20128;-75
2023/05/14 18:22:33;;;;;;;10.85;5.25;;;;;;;12.51;100.00;101748.88;10370172;28;20370;-75
2023/05/14 18:27:33;;;;;;;12.18;6.90;;;;;;;12.44;100.00;101739.75;10369490;28;20074;-75
2023/05/14 18:32:34;;;;;;;6.03;5.43;;;;;;;12.32;100.00;101744.84;10336155;28;20054;-75
2023/05/14 18:37:34;;;;;;;5.80;5.03;;;;;;;12.18;100.00;101745.69;10370260;28;20096;-76
2023/05/14 18:42:35;;;;;;;11.18;6.25;;;;;;;12.08;100.00;101745.97;10371265;28;20121;-75
2023/05/14 18:47:35;;;;;;;8.65;6.45;;;;;;;12.02;100.00;101745.88;10380313;28;20096;-74
2023/05/14 18:52:36;;;;;;;11.07;7.72;;;;;;;11.88;100.00;101755.69;10381403;28;20085;-76
2023/05/14 18:57:36;;;;;;;10.48;6.63;;;;;;;11.77;100.00;101748.84;10381699;28;20413;-75
2023/05/14 19:02:36;;;;;;;15.30;8.50;;;;;;;11.63;100.00;101753.19;10369510;28;20053;-75
2023/05/14 19:07:37;;;;;;;9.27;7.75;;;;;;;11.52;100.00;101753.63;10380836;28;20152;-74
2023/05/14 19:12:37;;;;;;;16.88;9.00;;;;;;;11.45;100.00;101759.94;10378888;28;20470;-74
2023/05/14 19:17:38;;;;;;;12.40;9.80;;;;;;;11.34;100.00;101756.66;10380270;28;20034;-76
2023/05/14 19:22:38;;;;;;;10.63;8.48;;;;;;;11.22;100.00;101747.25;10376644;28;20054;-76
2023/05/14 19:27:39;;;;;;;12.32;8.27;;;;;;;11.10;100.00;101744.13;10360861;28;20425;-75
2023/05/14 19:32:39;;;;;;;14.75;9.32;;;;;;;10.99;100.00;101738.28;10359397;28;20056;-74
2023/05/14 19:37:40;;;;;;;21.83;9.35;;;;;;;10.93;100.00;101745.25;10360051;28;20059;-76
2023/05/14 19:42:40;;;;;;;15.18;12.27;;;;;;;10.93;100.00;101742.53;10362851;28;20041;-76
2023/05/14 19:47:41;;;;;;;15.38;9.88;;;;;;;10.89;100.00;101733.94;10375016;28;20057;-74
2023/05/14 19:52:42;;;;;;;10.10;9.00;;;;;;;10.86;100.00;101744.28;10374262;28;20077;-75
2023/05/14 19:57:42;;;;;;;10.57;9.65;;;;;;;10.80;100.00;101745.00;10375678;28;20116;-75
2023/05/14 20:02:42;;;;;;;12.80;8.38;;;;;;;10.73;100.00;101739.47;10375303;28;20073;-76
2023/05/14 20:07:43;;;;;;;13.00;11.43;;;;;;;10.72;100.00;101745.91;10373901;28;20037;-75
2023/05/14 20:12:44;;;;;;;11.70;10.10;;;;;;;10.67;100.00;101751.00;10372194;28;20038;-75
2023/05/14 20:17:45;;;;;;;19.60;13.15;;;;;;;10.60;100.00;101745.44;10389440;28;20465;-75
2023/05/14 20:22:45;;;;;;;20.10;13.35;;;;;;;10.53;100.00;101738.19;10373469;28;20038;-76
2023/05/14 20:27:45;;;;;;;15.55;11.82;;;;;;;10.55;100.00;101736.16;10373783;28;20128;-74
2023/05/14 20:32:46;;;;;;;14.13;11.25;;;;;;;10.46;100.00;101735.34;10374127;28;20081;-75
2023/05/14 20:37:48;;;;;;;12.45;10.65;;;;;;;10.42;100.00;101744.84;10389290;28;20064;-77
2023/05/14 20:42:49;;;;;;;14.90;12.45;;;;;;;10.36;100.00;101732.84;10372900;28;20034;-76
2023/05/14 20:47:49;;;;;;;20.48;12.75;;;;;;;10.31;100.00;101740.69;10373773;28;20441;-75
2023/05/14 20:52:50;;;;;;;19.63;13.18;;;;;;;10.27;100.00;101739.31;10373115;28;20038;-75
2023/05/14 20:57:50;;;;;;;21.05;13.15;;;;;;;10.21;100.00;101729.16;10355883;28;20523;-76
2023/05/14 21:02:50;;;;;;;20.33;14.68;;;;;;;10.17;100.00;101722.41;10388604;28;20034;-75
2023/05/14 21:07:51;;;;;;;18.10;13.63;;;;;;;10.13;100.00;101726.50;10371543;28;20184;-74
2023/05/14 21:12:51;;;;;;;17.27;14.75;;;;;;;10.09;100.00;101717.88;10375821;28;20099;-75
2023/05/14 21:17:52;;;;;;;19.67;15.40;;;;;;;10.04;100.00;101716.72;10410266;28;20044;-76
2023/05/14 21:22:52;;;;;;;18.02;14.10;;;;;;;10.02;100.00;101714.19;10385416;28;20052;-75
2023/05/14 21:27:53;;;;;;;22.55;15.30;;;;;;;9.93;100.00;101705.25;10374496;28;20049;-76
2023/05/14 21:32:53;;;;;;;25.38;17.38;;;;;;;9.93;100.00;101715.22;10354178;28;20057;-75
2023/05/14 21:37:54;;;;;;;21.77;15.27;;;;;;;9.92;100.00;101719.81;10372483;28;20045;-74
2023/05/14 21:42:54;;;;;;;24.20;15.15;;;;;;;9.97;100.00;101727.38;10370344;28;20371;-76
2023/05/14 21:47:54;;;;;;;26.08;16.83;;;;;;;9.94;100.00;101727.72;10353307;28;20038;-75
2023/05/14 21:52:55;;;;;;;24.35;17.00;;;;;;;10.00;100.00;101727.03;10329120;28;20039;-78
2023/05/14 21:57:55;;;;;;;25.75;15.88;;;;;;;9.99;100.00;101711.81;10330042;28;20484;-74
2023/05/14 22:02:56;;;;;;;22.02;15.30;;;;;;;9.96;100.00;101710.31;10330584;28;20030;-75
2023/05/14 22:07:56;;;;;;;26.38;17.48;;;;;;;9.94;100.00;101706.91;10345945;28;20049;-76
2023/05/14 22:12:57;;;;;;;21.17;18.13;;;;;;;9.87;100.00;101695.13;10329967;28;20125;-74
2023/05/14 22:17:57;;;;;;;32.15;19.40;;;;;;;9.94;100.00;101700.66;10344988;28;20042;-76
2023/05/14 22:22:57;;;;;;;28.20;19.98;;;;;;;9.96;100.00;101694.06;10329016;28;20049;-75
2023/05/14 22:27:58;;;;;;;27.92;20.95;;;;;;;10.01;100.00;101682.72;10329824;28;20069;-76
2023/05/14 22:32:58;;;;;;;27.80;22.30;;;;;;;10.06;100.00;101683.03;10328894;28;20072;-75